sensor_id;sensor_type;location;lat;lon;timestamp;temperature;humidity
66337;SHT30;53139;45.576;5.304;2023-08-06T00:02:24;15.70;82.01
66337;SHT30;53139;45.576;5.304;2023-08-06T00:05:25;15.78;81.88
66337;SHT30;53139;45.576;5.304;2023-08-06T00:08:25;15.87;81.63
66337;SHT30;53139;45.576;5.304;2023-08-06T00:11:26;15.90;81.24
66337;SHT30;53139;45.576;5.304;2023-08-06T00:14:26;15.85;81.03
66337;SHT30;53139;45.576;5.304;2023-08-06T00:17:27;15.78;82.15
66337;SHT30;53139;45.576;5.304;2023-08-06T00:20:27;15.88;82.27
66337;SHT30;53139;45.576;5.304;2023-08-06T00:23:28;15.91;81.91
66337;SHT30;53139;45.576;5.304;2023-08-06T00:26:32;15.99;80.49
66337;SHT30;53139;45.576;5.304;2023-08-06T00:29:45;16.05;80.42
66337;SHT30;53139;45.576;5.304;2023-08-06T00:33:28;16.06;80.50
66337;SHT30;53139;45.576;5.304;2023-08-06T00:36:58;15.87;82.58
66337;SHT30;53139;45.576;5.304;2023-08-06T00:40:28;16.10;80.77
66337;SHT30;53139;45.576;5.304;2023-08-06T00:44:10;15.97;81.55
66337;SHT30;53139;45.576;5.304;2023-08-06T00:47:41;16.13;80.24
66337;SHT30;53139;45.576;5.304;2023-08-06T00:51:12;15.90;80.82
66337;SHT30;53139;45.576;5.304;2023-08-06T00:54:52;15.68;81.96
66337;SHT30;53139;45.576;5.304;2023-08-06T00:58:20;15.64;82.61
66337;SHT30;53139;45.576;5.304;2023-08-06T01:01:49;15.74;82.62
66337;SHT30;53139;45.576;5.304;2023-08-06T01:05:26;15.81;83.16
66337;SHT30;53139;45.576;5.304;2023-08-06T01:09:13;16.36;77.11
66337;SHT30;53139;45.576;5.304;2023-08-06T01:16:21;16.95;71.88
66337;SHT30;53139;45.576;5.304;2023-08-06T01:19:55;17.04;70.97
66337;SHT30;53139;45.576;5.304;2023-08-06T01:23:33;16.99;71.43
66337;SHT30;53139;45.576;5.304;2023-08-06T01:27:04;16.63;72.62
66337;SHT30;53139;45.576;5.304;2023-08-06T01:30:33;16.10;75.44
66337;SHT30;53139;45.576;5.304;2023-08-06T01:33:56;15.70;77.59
66337;SHT30;53139;45.576;5.304;2023-08-06T01:37:24;16.37;74.23
66337;SHT30;53139;45.576;5.304;2023-08-06T01:40:53;16.43;73.03
66337;SHT30;53139;45.576;5.304;2023-08-06T01:44:25;16.05;74.35
66337;SHT30;53139;45.576;5.304;2023-08-06T01:47:52;15.99;75.39
66337;SHT30;53139;45.576;5.304;2023-08-06T01:51:16;15.82;77.14
66337;SHT30;53139;45.576;5.304;2023-08-06T01:54:48;15.95;75.18
66337;SHT30;53139;45.576;5.304;2023-08-06T01:58:07;15.88;77.01
66337;SHT30;53139;45.576;5.304;2023-08-06T02:01:29;15.75;76.28
66337;SHT30;53139;45.576;5.304;2023-08-06T02:04:55;15.68;77.93
66337;SHT30;53139;45.576;5.304;2023-08-06T02:08:28;16.27;74.09
66337;SHT30;53139;45.576;5.304;2023-08-06T02:12:10;16.50;72.61
66337;SHT30;53139;45.576;5.304;2023-08-06T02:15:44;16.39;73.08
66337;SHT30;53139;45.576;5.304;2023-08-06T02:19:17;16.33;73.11
66337;SHT30;53139;45.576;5.304;2023-08-06T02:22:49;16.20;73.22
66337;SHT30;53139;45.576;5.304;2023-08-06T02:26:05;16.08;73.61
66337;SHT30;53139;45.576;5.304;2023-08-06T02:29:29;16.15;73.04
66337;SHT30;53139;45.576;5.304;2023-08-06T02:32:58;16.13;73.65
66337;SHT30;53139;45.576;5.304;2023-08-06T02:36:21;15.82;75.02
66337;SHT30;53139;45.576;5.304;2023-08-06T02:39:28;15.91;74.09
66337;SHT30;53139;45.576;5.304;2023-08-06T02:42:47;16.20;73.07
66337;SHT30;53139;45.576;5.304;2023-08-06T02:46:01;16.15;73.08
66337;SHT30;53139;45.576;5.304;2023-08-06T02:49:08;15.91;74.20
66337;SHT30;53139;45.576;5.304;2023-08-06T02:52:18;15.98;73.68
66337;SHT30;53139;45.576;5.304;2023-08-06T02:55:36;15.88;73.97
66337;SHT30;53139;45.576;5.304;2023-08-06T02:59:00;16.05;73.18
66337;SHT30;53139;45.576;5.304;2023-08-06T03:02:24;15.65;74.66
66337;SHT30;53139;45.576;5.304;2023-08-06T03:05:58;15.63;74.95
66337;SHT30;53139;45.576;5.304;2023-08-06T03:09:26;15.39;76.02
66337;SHT30;53139;45.576;5.304;2023-08-06T03:12:49;15.20;76.76
66337;SHT30;53139;45.576;5.304;2023-08-06T03:16:19;15.23;76.65
66337;SHT30;53139;45.576;5.304;2023-08-06T03:19:41;15.39;76.09
66337;SHT30;53139;45.576;5.304;2023-08-06T03:23:07;15.33;76.16
66337;SHT30;53139;45.576;5.304;2023-08-06T03:26:33;15.63;75.27
66337;SHT30;53139;45.576;5.304;2023-08-06T03:29:58;15.53;76.32
66337;SHT30;53139;45.576;5.304;2023-08-06T03:33:41;15.54;75.20
66337;SHT30;53139;45.576;5.304;2023-08-06T03:37:20;15.63;74.86
66337;SHT30;53139;45.576;5.304;2023-08-06T03:40:59;15.53;74.72
66337;SHT30;53139;45.576;5.304;2023-08-06T03:44:28;15.40;74.90
66337;SHT30;53139;45.576;5.304;2023-08-06T03:48:11;15.26;75.49
66337;SHT30;53139;45.576;5.304;2023-08-06T03:51:45;15.30;74.80
66337;SHT30;53139;45.576;5.304;2023-08-06T03:55:09;15.06;75.41
66337;SHT30;53139;45.576;5.304;2023-08-06T03:58:31;14.96;76.17
66337;SHT30;53139;45.576;5.304;2023-08-06T04:01:57;14.85;76.17
66337;SHT30;53139;45.576;5.304;2023-08-06T04:05:31;14.88;76.45
66337;SHT30;53139;45.576;5.304;2023-08-06T04:09:09;14.88;76.05
66337;SHT30;53139;45.576;5.304;2023-08-06T04:12:41;14.36;77.61
66337;SHT30;53139;45.576;5.304;2023-08-06T04:16:09;14.48;77.08
66337;SHT30;53139;45.576;5.304;2023-08-06T04:19:40;14.82;75.90
66337;SHT30;53139;45.576;5.304;2023-08-06T04:22:54;14.84;75.65
66337;SHT30;53139;45.576;5.304;2023-08-06T04:26:24;14.60;76.94
66337;SHT30;53139;45.576;5.304;2023-08-06T04:29:51;14.71;77.20
66337;SHT30;53139;45.576;5.304;2023-08-06T04:33:10;14.78;76.49
66337;SHT30;53139;45.576;5.304;2023-08-06T04:36:24;15.12;75.32
66337;SHT30;53139;45.576;5.304;2023-08-06T04:39:33;14.92;76.57
66337;SHT30;53139;45.576;5.304;2023-08-06T04:42:51;14.96;76.62
66337;SHT30;53139;45.576;5.304;2023-08-06T04:46:03;14.84;78.70
66337;SHT30;53139;45.576;5.304;2023-08-06T04:49:41;15.02;76.96
66337;SHT30;53139;45.576;5.304;2023-08-06T04:53:10;15.22;75.86
66337;SHT30;53139;45.576;5.304;2023-08-06T04:56:33;15.27;75.24
66337;SHT30;53139;45.576;5.304;2023-08-06T04:59:40;15.47;74.40
66337;SHT30;53139;45.576;5.304;2023-08-06T05:02:47;15.39;76.25
66337;SHT30;53139;45.576;5.304;2023-08-06T05:05:48;15.40;75.24
66337;SHT30;53139;45.576;5.304;2023-08-06T05:08:48;15.35;75.01
66337;SHT30;53139;45.576;5.304;2023-08-06T05:11:49;15.68;73.61
66337;SHT30;53139;45.576;5.304;2023-08-06T05:14:49;15.60;74.97
66337;SHT30;53139;45.576;5.304;2023-08-06T05:17:49;15.51;73.43
66337;SHT30;53139;45.576;5.304;2023-08-06T05:20:50;15.26;76.30
66337;SHT30;53139;45.576;5.304;2023-08-06T05:23:50;13.85;84.98
66337;SHT30;53139;45.576;5.304;2023-08-06T05:26:51;13.28;93.59
66337;SHT30;53139;45.576;5.304;2023-08-06T05:29:55;13.26;94.42
66337;SHT30;53139;45.576;5.304;2023-08-06T05:32:56;13.39;96.09
66337;SHT30;53139;45.576;5.304;2023-08-06T05:35:56;13.43;95.85
66337;SHT30;53139;45.576;5.304;2023-08-06T05:38:57;13.39;96.00
66337;SHT30;53139;45.576;5.304;2023-08-06T05:41:57;13.42;94.97
66337;SHT30;53139;45.576;5.304;2023-08-06T05:44:57;13.65;95.49
66337;SHT30;53139;45.576;5.304;2023-08-06T05:47:58;13.60;94.53
66337;SHT30;53139;45.576;5.304;2023-08-06T05:50:59;13.65;95.59
66337;SHT30;53139;45.576;5.304;2023-08-06T05:54:00;13.51;93.28
66337;SHT30;53139;45.576;5.304;2023-08-06T05:57:00;13.70;92.64
66337;SHT30;53139;45.576;5.304;2023-08-06T06:00:01;13.94;94.11
66337;SHT30;53139;45.576;5.304;2023-08-06T06:03:02;14.06;93.07
66337;SHT30;53139;45.576;5.304;2023-08-06T06:06:02;14.34;94.02
66337;SHT30;53139;45.576;5.304;2023-08-06T06:09:03;14.32;93.05
66337;SHT30;53139;45.576;5.304;2023-08-06T06:12:04;14.22;91.13
66337;SHT30;53139;45.576;5.304;2023-08-06T06:15:05;14.17;89.13
66337;SHT30;53139;45.576;5.304;2023-08-06T06:18:10;13.89;88.51
66337;SHT30;53139;45.576;5.304;2023-08-06T06:21:16;14.04;86.70
66337;SHT30;53139;45.576;5.304;2023-08-06T06:24:26;14.20;86.21
66337;SHT30;53139;45.576;5.304;2023-08-06T06:27:38;14.38;83.08
66337;SHT30;53139;45.576;5.304;2023-08-06T06:30:43;14.56;82.73
66337;SHT30;53139;45.576;5.304;2023-08-06T06:33:44;15.10;81.62
66337;SHT30;53139;45.576;5.304;2023-08-06T06:36:47;15.32;80.72
66337;SHT30;53139;45.576;5.304;2023-08-06T06:39:55;15.73;78.48
66337;SHT30;53139;45.576;5.304;2023-08-06T06:42:58;16.01;77.38
66337;SHT30;53139;45.576;5.304;2023-08-06T06:46:09;15.90;77.83
66337;SHT30;53139;45.576;5.304;2023-08-06T06:49:13;15.91;77.45
66337;SHT30;53139;45.576;5.304;2023-08-06T06:52:32;15.97;76.56
66337;SHT30;53139;45.576;5.304;2023-08-06T06:55:44;16.26;76.32
66337;SHT30;53139;45.576;5.304;2023-08-06T06:59:02;16.20;75.16
66337;SHT30;53139;45.576;5.304;2023-08-06T07:02:15;15.91;73.81
66337;SHT30;53139;45.576;5.304;2023-08-06T07:05:31;16.05;74.07
66337;SHT30;53139;45.576;5.304;2023-08-06T07:08:49;16.16;73.43
66337;SHT30;53139;45.576;5.304;2023-08-06T07:11:53;16.74;72.95
66337;SHT30;53139;45.576;5.304;2023-08-06T07:15:06;17.02;72.59
66337;SHT30;53139;45.576;5.304;2023-08-06T07:18:15;17.33;70.84
66337;SHT30;53139;45.576;5.304;2023-08-06T07:21:22;17.62;70.28
66337;SHT30;53139;45.576;5.304;2023-08-06T07:24:47;18.04;70.81
66337;SHT30;53139;45.576;5.304;2023-08-06T07:28:11;17.73;69.13
66337;SHT30;53139;45.576;5.304;2023-08-06T07:31:36;18.47;69.24
66337;SHT30;53139;45.576;5.304;2023-08-06T07:35:07;18.46;66.95
66337;SHT30;53139;45.576;5.304;2023-08-06T07:38:45;18.25;67.60
66337;SHT30;53139;45.576;5.304;2023-08-06T07:42:20;18.39;67.72
66337;SHT30;53139;45.576;5.304;2023-08-06T07:46:02;17.98;70.29
66337;SHT30;53139;45.576;5.304;2023-08-06T07:49:50;17.83;70.39
66337;SHT30;53139;45.576;5.304;2023-08-06T07:53:36;17.50;69.97
66337;SHT30;53139;45.576;5.304;2023-08-06T07:57:10;18.05;69.75
66337;SHT30;53139;45.576;5.304;2023-08-06T08:04:54;19.00;67.16
66337;SHT30;53139;45.576;5.304;2023-08-06T08:08:41;18.15;67.44
66337;SHT30;53139;45.576;5.304;2023-08-06T08:12:17;16.99;70.46
66337;SHT30;53139;45.576;5.304;2023-08-06T08:15:31;17.23;69.58
66337;SHT30;53139;45.576;5.304;2023-08-06T08:18:32;17.19;67.07
66337;SHT30;53139;45.576;5.304;2023-08-06T08:21:41;17.69;66.66
66337;SHT30;53139;45.576;5.304;2023-08-06T08:24:57;18.35;64.36
66337;SHT30;53139;45.576;5.304;2023-08-06T08:27:57;20.01;63.14
66337;SHT30;53139;45.576;5.304;2023-08-06T08:30:58;20.07;60.68
66337;SHT30;53139;45.576;5.304;2023-08-06T08:33:58;19.23;62.25
66337;SHT30;53139;45.576;5.304;2023-08-06T08:37:01;18.64;62.40
66337;SHT30;53139;45.576;5.304;2023-08-06T08:40:01;18.92;63.44
66337;SHT30;53139;45.576;5.304;2023-08-06T08:43:04;19.05;63.33
66337;SHT30;53139;45.576;5.304;2023-08-06T08:46:05;20.38;62.44
66337;SHT30;53139;45.576;5.304;2023-08-06T08:49:07;22.53;58.02
66337;SHT30;53139;45.576;5.304;2023-08-06T08:52:10;22.28;58.68
66337;SHT30;53139;45.576;5.304;2023-08-06T08:55:15;20.00;65.85
66337;SHT30;53139;45.576;5.304;2023-08-06T08:58:16;17.75;69.06
66337;SHT30;53139;45.576;5.304;2023-08-06T09:01:17;14.54;86.42
66337;SHT30;53139;45.576;5.304;2023-08-06T09:04:18;13.77;90.42
66337;SHT30;53139;45.576;5.304;2023-08-06T09:07:19;13.83;92.11
66337;SHT30;53139;45.576;5.304;2023-08-06T09:10:22;13.98;91.05
66337;SHT30;53139;45.576;5.304;2023-08-06T09:13:24;14.37;90.36
66337;SHT30;53139;45.576;5.304;2023-08-06T09:16:25;14.98;87.13
66337;SHT30;53139;45.576;5.304;2023-08-06T09:19:26;16.39;81.37
66337;SHT30;53139;45.576;5.304;2023-08-06T09:22:34;18.67;74.87
66337;SHT30;53139;45.576;5.304;2023-08-06T09:25:38;19.29;67.82
66337;SHT30;53139;45.576;5.304;2023-08-06T09:28:39;19.77;71.62
66337;SHT30;53139;45.576;5.304;2023-08-06T09:34:45;18.54;67.55
66337;SHT30;53139;45.576;5.304;2023-08-06T09:37:46;19.52;65.46
66337;SHT30;53139;45.576;5.304;2023-08-06T09:40:46;20.33;60.85
66337;SHT30;53139;45.576;5.304;2023-08-06T09:43:47;21.34;60.21
66337;SHT30;53139;45.576;5.304;2023-08-06T09:46:48;21.34;62.17
66337;SHT30;53139;45.576;5.304;2023-08-06T09:49:50;22.35;56.43
66337;SHT30;53139;45.576;5.304;2023-08-06T09:52:51;23.73;55.65
66337;SHT30;53139;45.576;5.304;2023-08-06T09:55:53;22.41;57.21
66337;SHT30;53139;45.576;5.304;2023-08-06T09:58:54;21.32;60.25
66337;SHT30;53139;45.576;5.304;2023-08-06T10:01:55;21.41;61.30
66337;SHT30;53139;45.576;5.304;2023-08-06T10:04:57;21.57;58.92
66337;SHT30;53139;45.576;5.304;2023-08-06T10:07:59;24.93;51.90
66337;SHT30;53139;45.576;5.304;2023-08-06T10:11:02;25.64;52.90
66337;SHT30;53139;45.576;5.304;2023-08-06T10:14:09;25.31;49.82
66337;SHT30;53139;45.576;5.304;2023-08-06T10:17:10;25.28;50.18
66337;SHT30;53139;45.576;5.304;2023-08-06T10:20:11;24.62;54.36
66337;SHT30;53139;45.576;5.304;2023-08-06T10:23:12;22.11;57.92
66337;SHT30;53139;45.576;5.304;2023-08-06T10:26:16;20.80;61.36
66337;SHT30;53139;45.576;5.304;2023-08-06T10:29:35;19.66;63.16
66337;SHT30;53139;45.576;5.304;2023-08-06T10:32:49;20.95;60.87
66337;SHT30;53139;45.576;5.304;2023-08-06T10:35:50;24.21;53.63
66337;SHT30;53139;45.576;5.304;2023-08-06T10:38:57;23.90;54.19
66337;SHT30;53139;45.576;5.304;2023-08-06T10:41:58;26.03;49.43
66337;SHT30;53139;45.576;5.304;2023-08-06T10:45:17;25.93;50.49
66337;SHT30;53139;45.576;5.304;2023-08-06T10:48:39;25.45;52.87
66337;SHT30;53139;45.576;5.304;2023-08-06T10:51:40;24.01;50.91
66337;SHT30;53139;45.576;5.304;2023-08-06T10:54:40;21.46;54.63
66337;SHT30;53139;45.576;5.304;2023-08-06T10:57:40;20.39;56.58
66337;SHT30;53139;45.576;5.304;2023-08-06T11:00:41;20.01;59.02
66337;SHT30;53139;45.576;5.304;2023-08-06T11:03:43;20.05;60.26
66337;SHT30;53139;45.576;5.304;2023-08-06T11:06:44;20.01;59.24
66337;SHT30;53139;45.576;5.304;2023-08-06T11:09:51;19.66;59.93
66337;SHT30;53139;45.576;5.304;2023-08-06T11:12:53;20.25;60.81
66337;SHT30;53139;45.576;5.304;2023-08-06T11:15:53;20.29;59.17
66337;SHT30;53139;45.576;5.304;2023-08-06T11:18:54;21.46;58.17
66337;SHT30;53139;45.576;5.304;2023-08-06T11:21:56;21.55;55.03
66337;SHT30;53139;45.576;5.304;2023-08-06T11:24:57;23.87;54.30
66337;SHT30;53139;45.576;5.304;2023-08-06T11:27:57;22.28;52.35
66337;SHT30;53139;45.576;5.304;2023-08-06T11:30:58;22.38;54.84
66337;SHT30;53139;45.576;5.304;2023-08-06T11:34:01;22.01;55.69
66337;SHT30;53139;45.576;5.304;2023-08-06T11:37:05;22.48;54.15
66337;SHT30;53139;45.576;5.304;2023-08-06T11:40:09;25.27;50.05
66337;SHT30;53139;45.576;5.304;2023-08-06T11:43:12;25.89;46.22
66337;SHT30;53139;45.576;5.304;2023-08-06T11:46:13;27.96;43.79
66337;SHT30;53139;45.576;5.304;2023-08-06T11:49:13;25.30;45.64
66337;SHT30;53139;45.576;5.304;2023-08-06T11:52:21;25.96;48.38
66337;SHT30;53139;45.576;5.304;2023-08-06T11:55:24;23.84;50.51
66337;SHT30;53139;45.576;5.304;2023-08-06T11:58:25;22.83;51.17
66337;SHT30;53139;45.576;5.304;2023-08-06T12:01:25;21.86;54.04
66337;SHT30;53139;45.576;5.304;2023-08-06T12:04:26;23.77;53.72
66337;SHT30;53139;45.576;5.304;2023-08-06T12:07:39;24.89;48.42
66337;SHT30;53139;45.576;5.304;2023-08-06T12:10:40;23.86;49.89
66337;SHT30;53139;45.576;5.304;2023-08-06T12:13:41;23.38;49.06
66337;SHT30;53139;45.576;5.304;2023-08-06T12:16:41;24.14;49.45
66337;SHT30;53139;45.576;5.304;2023-08-06T12:19:41;25.72;48.75
66337;SHT30;53139;45.576;5.304;2023-08-06T12:22:42;25.31;48.08
66337;SHT30;53139;45.576;5.304;2023-08-06T12:25:42;23.97;50.01
66337;SHT30;53139;45.576;5.304;2023-08-06T12:28:44;25.41;46.40
66337;SHT30;53139;45.576;5.304;2023-08-06T12:31:45;28.98;41.80
66337;SHT30;53139;45.576;5.304;2023-08-06T12:34:45;26.43;43.09
66337;SHT30;53139;45.576;5.304;2023-08-06T12:37:46;26.00;45.85
66337;SHT30;53139;45.576;5.304;2023-08-06T12:40:46;27.10;47.60
66337;SHT30;53139;45.576;5.304;2023-08-06T12:43:46;24.68;47.76
66337;SHT30;53139;45.576;5.304;2023-08-06T12:46:47;23.59;47.49
66337;SHT30;53139;45.576;5.304;2023-08-06T12:49:47;24.37;48.96
66337;SHT30;53139;45.576;5.304;2023-08-06T12:52:47;22.76;50.94
66337;SHT30;53139;45.576;5.304;2023-08-06T12:55:48;23.87;50.50
66337;SHT30;53139;45.576;5.304;2023-08-06T12:58:48;22.67;49.14
66337;SHT30;53139;45.576;5.304;2023-08-06T13:01:48;25.51;45.73
66337;SHT30;53139;45.576;5.304;2023-08-06T13:04:49;25.61;44.67
66337;SHT30;53139;45.576;5.304;2023-08-06T13:07:49;24.69;47.59
66337;SHT30;53139;45.576;5.304;2023-08-06T13:10:50;25.62;44.54
66337;SHT30;53139;45.576;5.304;2023-08-06T13:13:50;24.47;46.21
66337;SHT30;53139;45.576;5.304;2023-08-06T13:16:50;24.10;47.32
66337;SHT30;53139;45.576;5.304;2023-08-06T13:19:51;23.92;47.99
66337;SHT30;53139;45.576;5.304;2023-08-06T13:22:51;24.03;49.85
66337;SHT30;53139;45.576;5.304;2023-08-06T13:25:53;27.09;45.59
66337;SHT30;53139;45.576;5.304;2023-08-06T13:28:54;25.58;46.07
66337;SHT30;53139;45.576;5.304;2023-08-06T13:31:55;23.32;51.31
66337;SHT30;53139;45.576;5.304;2023-08-06T13:34:55;22.56;49.13
66337;SHT30;53139;45.576;5.304;2023-08-06T13:37:55;24.65;49.79
66337;SHT30;53139;45.576;5.304;2023-08-06T13:40:56;26.89;44.85
66337;SHT30;53139;45.576;5.304;2023-08-06T13:43:56;24.94;46.20
66337;SHT30;53139;45.576;5.304;2023-08-06T13:46:56;24.89;51.88
66337;SHT30;53139;45.576;5.304;2023-08-06T13:49:57;26.78;44.00
66337;SHT30;53139;45.576;5.304;2023-08-06T13:52:57;26.95;44.44
66337;SHT30;53139;45.576;5.304;2023-08-06T13:55:58;26.00;43.78
66337;SHT30;53139;45.576;5.304;2023-08-06T13:58:58;26.03;46.94
66337;SHT30;53139;45.576;5.304;2023-08-06T14:01:59;30.04;40.62
66337;SHT30;53139;45.576;5.304;2023-08-06T14:05:00;26.86;45.16
66337;SHT30;53139;45.576;5.304;2023-08-06T14:08:00;35.81;35.63
66337;SHT30;53139;45.576;5.304;2023-08-06T14:11:00;35.10;33.17
66337;SHT30;53139;45.576;5.304;2023-08-06T14:14:01;33.69;37.80
66337;SHT30;53139;45.576;5.304;2023-08-06T14:17:01;33.80;33.46
66337;SHT30;53139;45.576;5.304;2023-08-06T14:20:04;26.10;44.24
66337;SHT30;53139;45.576;5.304;2023-08-06T14:23:04;26.10;45.98
66337;SHT30;53139;45.576;5.304;2023-08-06T14:26:05;28.12;42.11
66337;SHT30;53139;45.576;5.304;2023-08-06T14:29:05;24.49;48.54
66337;SHT30;53139;45.576;5.304;2023-08-06T14:32:06;23.72;48.15
66337;SHT30;53139;45.576;5.304;2023-08-06T14:35:07;22.96;49.09
66337;SHT30;53139;45.576;5.304;2023-08-06T14:38:07;32.52;37.27
66337;SHT30;53139;45.576;5.304;2023-08-06T14:41:08;35.21;33.09
66337;SHT30;53139;45.576;5.304;2023-08-06T14:44:08;33.76;34.59
66337;SHT30;53139;45.576;5.304;2023-08-06T14:47:08;33.52;33.51
66337;SHT30;53139;45.576;5.304;2023-08-06T14:50:09;27.47;40.38
66337;SHT30;53139;45.576;5.304;2023-08-06T14:53:09;25.47;43.38
66337;SHT30;53139;45.576;5.304;2023-08-06T14:56:11;24.79;44.54
66337;SHT30;53139;45.576;5.304;2023-08-06T14:59:12;24.01;47.84
66337;SHT30;53139;45.576;5.304;2023-08-06T15:02:12;23.69;48.24
66337;SHT30;53139;45.576;5.304;2023-08-06T15:05:13;23.27;50.41
66337;SHT30;53139;45.576;5.304;2023-08-06T15:08:13;28.63;41.94
66337;SHT30;53139;45.576;5.304;2023-08-06T15:11:14;25.94;44.17
66337;SHT30;53139;45.576;5.304;2023-08-06T15:14:15;24.89;48.20
66337;SHT30;53139;45.576;5.304;2023-08-06T15:17:16;24.75;46.68
66337;SHT30;53139;45.576;5.304;2023-08-06T15:32:39;35.31;32.08
66337;SHT30;53139;45.576;5.304;2023-08-06T15:56:58;23.29;50.62
66337;SHT30;53139;45.576;5.304;2023-08-06T16:00:40;23.04;50.59
66337;SHT30;53139;45.576;5.304;2023-08-06T16:04:09;23.27;48.38
66337;SHT30;53139;45.576;5.304;2023-08-06T16:07:21;23.56;48.77
66337;SHT30;53139;45.576;5.304;2023-08-06T16:10:31;22.90;49.64
66337;SHT30;53139;45.576;5.304;2023-08-06T16:14:24;23.28;48.81
66337;SHT30;53139;45.576;5.304;2023-08-06T16:17:55;30.98;37.85
66337;SHT30;53139;45.576;5.304;2023-08-06T16:21:57;32.32;37.78
66337;SHT30;53139;45.576;5.304;2023-08-06T16:25:49;28.74;37.52
66337;SHT30;53139;45.576;5.304;2023-08-06T16:37:37;23.52;48.66
66337;SHT30;53139;45.576;5.304;2023-08-06T16:41:23;24.17;48.39
66337;SHT30;53139;45.576;5.304;2023-08-06T16:52:52;22.62;50.16
66337;SHT30;53139;45.576;5.304;2023-08-06T16:56:39;22.07;51.03
66337;SHT30;53139;45.576;5.304;2023-08-06T17:00:38;22.66;50.38
66337;SHT30;53139;45.576;5.304;2023-08-06T17:04:00;26.33;44.42
66337;SHT30;53139;45.576;5.304;2023-08-06T17:07:31;22.63;48.76
66337;SHT30;53139;45.576;5.304;2023-08-06T17:10:53;21.90;51.71
66337;SHT30;53139;45.576;5.304;2023-08-06T17:13:54;21.46;52.01
66337;SHT30;53139;45.576;5.304;2023-08-06T17:16:54;21.46;53.78
66337;SHT30;53139;45.576;5.304;2023-08-06T17:19:55;21.01;54.26
66337;SHT30;53139;45.576;5.304;2023-08-06T17:22:56;20.77;53.39
66337;SHT30;53139;45.576;5.304;2023-08-06T17:25:56;20.66;53.87
66337;SHT30;53139;45.576;5.304;2023-08-06T17:28:57;21.04;53.79
66337;SHT30;53139;45.576;5.304;2023-08-06T17:31:57;20.98;52.47
66337;SHT30;53139;45.576;5.304;2023-08-06T17:34:57;22.52;50.51
66337;SHT30;53139;45.576;5.304;2023-08-06T17:37:58;21.48;51.78
66337;SHT30;53139;45.576;5.304;2023-08-06T17:40:59;21.80;50.20
66337;SHT30;53139;45.576;5.304;2023-08-06T17:44:00;21.41;51.38
66337;SHT30;53139;45.576;5.304;2023-08-06T17:47:00;19.98;54.47
66337;SHT30;53139;45.576;5.304;2023-08-06T17:50:01;20.32;53.35
66337;SHT30;53139;45.576;5.304;2023-08-06T17:53:01;19.74;54.78
66337;SHT30;53139;45.576;5.304;2023-08-06T17:56:02;20.39;53.97
66337;SHT30;53139;45.576;5.304;2023-08-06T17:59:02;20.02;55.38
66337;SHT30;53139;45.576;5.304;2023-08-06T18:02:03;19.67;54.31
66337;SHT30;53139;45.576;5.304;2023-08-06T18:05:04;19.57;56.28
66337;SHT30;53139;45.576;5.304;2023-08-06T18:08:04;19.36;56.60
66337;SHT30;53139;45.576;5.304;2023-08-06T18:11:04;19.25;55.65
66337;SHT30;53139;45.576;5.304;2023-08-06T18:14:05;19.14;56.39
66337;SHT30;53139;45.576;5.304;2023-08-06T18:17:05;19.16;57.51
66337;SHT30;53139;45.576;5.304;2023-08-06T18:20:06;19.04;57.45
66337;SHT30;53139;45.576;5.304;2023-08-06T18:23:07;18.90;57.19
66337;SHT30;53139;45.576;5.304;2023-08-06T18:26:07;18.68;58.22
66337;SHT30;53139;45.576;5.304;2023-08-06T18:29:07;18.66;57.06
66337;SHT30;53139;45.576;5.304;2023-08-06T18:32:08;18.56;58.51
66337;SHT30;53139;45.576;5.304;2023-08-06T18:35:08;18.52;59.34
66337;SHT30;53139;45.576;5.304;2023-08-06T18:38:10;18.39;59.03
66337;SHT30;53139;45.576;5.304;2023-08-06T18:41:10;18.35;59.09
66337;SHT30;53139;45.576;5.304;2023-08-06T18:44:11;18.24;60.17
66337;SHT30;53139;45.576;5.304;2023-08-06T18:47:11;18.15;60.76
66337;SHT30;53139;45.576;5.304;2023-08-06T18:50:11;18.06;60.46
66337;SHT30;53139;45.576;5.304;2023-08-06T18:53:12;17.88;62.10
66337;SHT30;53139;45.576;5.304;2023-08-06T18:56:12;17.87;62.03
66337;SHT30;53139;45.576;5.304;2023-08-06T18:59:13;17.81;62.24
66337;SHT30;53139;45.576;5.304;2023-08-06T19:02:16;17.71;62.23
66337;SHT30;53139;45.576;5.304;2023-08-06T19:05:16;17.74;62.01
66337;SHT30;53139;45.576;5.304;2023-08-06T19:08:17;17.69;62.18
66337;SHT30;53139;45.576;5.304;2023-08-06T19:11:17;17.59;62.42
66337;SHT30;53139;45.576;5.304;2023-08-06T19:14:18;17.51;63.17
66337;SHT30;53139;45.576;5.304;2023-08-06T19:17:18;17.59;63.49
66337;SHT30;53139;45.576;5.304;2023-08-06T19:20:18;17.53;63.34
66337;SHT30;53139;45.576;5.304;2023-08-06T19:23:19;17.37;63.35
66337;SHT30;53139;45.576;5.304;2023-08-06T19:26:20;17.11;64.54
66337;SHT30;53139;45.576;5.304;2023-08-06T19:29:20;17.18;64.85
66337;SHT30;53139;45.576;5.304;2023-08-06T19:32:21;17.02;65.60
66337;SHT30;53139;45.576;5.304;2023-08-06T19:35:21;17.07;65.85
66337;SHT30;53139;45.576;5.304;2023-08-06T19:38:23;17.19;65.06
66337;SHT30;53139;45.576;5.304;2023-08-06T19:41:24;17.19;64.90
66337;SHT30;53139;45.576;5.304;2023-08-06T19:44:25;17.20;65.82
66337;SHT30;53139;45.576;5.304;2023-08-06T19:47:26;16.40;69.55
66337;SHT30;53139;45.576;5.304;2023-08-06T19:50:26;15.19;78.07
66337;SHT30;53139;45.576;5.304;2023-08-06T19:53:27;15.19;76.93
66337;SHT30;53139;45.576;5.304;2023-08-06T19:56:29;15.30;75.43
66337;SHT30;53139;45.576;5.304;2023-08-06T19:59:30;15.92;72.96
66337;SHT30;53139;45.576;5.304;2023-08-06T20:02:30;14.54;83.96
66337;SHT30;53139;45.576;5.304;2023-08-06T20:05:31;14.05;89.07
66337;SHT30;53139;45.576;5.304;2023-08-06T20:08:32;13.55;89.78
66337;SHT30;53139;45.576;5.304;2023-08-06T20:11:32;13.40;88.11
66337;SHT30;53139;45.576;5.304;2023-08-06T20:14:33;13.20;91.53
66337;SHT30;53139;45.576;5.304;2023-08-06T20:17:33;13.13;92.82
66337;SHT30;53139;45.576;5.304;2023-08-06T20:20:35;13.09;94.03
66337;SHT30;53139;45.576;5.304;2023-08-06T20:23:35;12.77;94.87
66337;SHT30;53139;45.576;5.304;2023-08-06T20:26:36;12.84;96.47
66337;SHT30;53139;45.576;5.304;2023-08-06T20:29:36;12.89;95.91
66337;SHT30;53139;45.576;5.304;2023-08-06T20:32:36;12.93;95.58
66337;SHT30;53139;45.576;5.304;2023-08-06T20:35:38;12.78;96.33
66337;SHT30;53139;45.576;5.304;2023-08-06T20:38:39;12.62;97.25
66337;SHT30;53139;45.576;5.304;2023-08-06T20:41:39;12.51;97.85
66337;SHT30;53139;45.576;5.304;2023-08-06T20:44:40;12.75;96.82
66337;SHT30;53139;45.576;5.304;2023-08-06T20:47:40;12.55;98.00
66337;SHT30;53139;45.576;5.304;2023-08-06T20:50:40;12.68;96.33
66337;SHT30;53139;45.576;5.304;2023-08-06T20:53:41;12.64;96.85
66337;SHT30;53139;45.576;5.304;2023-08-06T20:56:41;12.48;97.98
66337;SHT30;53139;45.576;5.304;2023-08-06T20:59:42;12.61;97.47